Time;durP1;ratioP1;P1;durP2;ratioP2;P2;SDS_P1;SDS_P2;PMS_P1;PMS_P2;Temp;Humidity;BMP_temperature;BMP_pressure;BME280_temperature;BME280_humidity;BME280_pressure;Samples;Min_cycle;Max_cycle;Signal;HPM_P1;HPM_P2
2021/08/19 00:02:24;;;;;;;23.43;13.53;;;;;;;;;;5045586;28;20470;-70
2021/08/19 00:04:51;;;;;;;20.80;10.73;;;;;;;;;;5072073;28;20297;-70
2021/08/19 00:07:16;;;;;;;17.63;10.10;;;;;;;;;;5071653;28;20283;-70
2021/08/19 00:09:41;;;;;;;20.70;9.27;;;;;;;;;;5071290;28;20020;-70
2021/08/19 00:12:09;;;;;;;20.60;7.63;;;;;;;;;;5070490;28;20020;-71
2021/08/19 00:14:38;;;;;;;18.90;8.95;;;;;;;;;;5071399;28;20271;-70
2021/08/19 00:17:04;;;;;;;25.35;9.77;;;;;;;;;;5071502;28;20107;-70
2021/08/19 00:19:29;;;;;;;18.05;9.82;;;;;;;;;;5071255;28;20111;-70
2021/08/19 00:21:54;;;;;;;22.92;11.63;;;;;;;;;;5053248;28;20111;-70
2021/08/19 00:24:20;;;;;;;20.88;11.70;;;;;;;;;;5070355;28;20378;-70
2021/08/19 00:26:45;;;;;;;25.35;12.90;;;;;;;;;;5053260;28;20103;-70
2021/08/19 00:29:10;;;;;;;23.73;14.50;;;;;;;;;;5068410;28;20038;-70
2021/08/19 00:31:35;;;;;;;27.33;14.00;;;;;;;;;;5070369;28;20024;-70
2021/08/19 00:34:00;;;;;;;28.13;13.50;;;;;;;;;;5070490;28;20108;-70
2021/08/19 00:36:26;;;;;;;27.97;13.87;;;;;;;;;;5070967;28;20255;-70
2021/08/19 00:38:51;;;;;;;25.08;13.68;;;;;;;;;;5071226;28;20275;-70
2021/08/19 00:41:16;;;;;;;24.63;13.65;;;;;;;;;;5052882;28;20043;-70
2021/08/19 00:43:41;;;;;;;27.13;13.80;;;;;;;;;;5070698;28;20020;-70
2021/08/19 00:46:22;;;;;;;20.23;12.65;;;;;;;;;;5071034;28;20528;-70
2021/08/19 00:48:48;;;;;;;26.55;12.43;;;;;;;;;;5060806;28;20029;-70
2021/08/19 00:51:14;;;;;;;23.47;12.63;;;;;;;;;;5052032;28;20047;-71
2021/08/19 00:53:39;;;;;;;18.80;11.05;;;;;;;;;;5070156;28;20740;-70
2021/08/19 00:56:04;;;;;;;22.07;11.93;;;;;;;;;;5071177;28;20035;-70
2021/08/19 00:58:30;;;;;;;20.73;10.75;;;;;;;;;;5070343;28;20262;-70
2021/08/19 01:00:55;;;;;;;16.75;10.57;;;;;;;;;;5070391;28;20039;-71
2021/08/19 01:03:20;;;;;;;20.20;11.50;;;;;;;;;;5070015;28;20052;-70
2021/08/19 01:05:46;;;;;;;15.60;10.23;;;;;;;;;;5070275;28;20032;-70
2021/08/19 01:08:11;;;;;;;19.10;10.17;;;;;;;;;;5070140;28;20270;-70
2021/08/19 01:10:36;;;;;;;18.95;10.40;;;;;;;;;;5052804;28;20346;-70
2021/08/19 01:13:01;;;;;;;18.77;9.43;;;;;;;;;;5069157;28;20039;-70
2021/08/19 01:15:26;;;;;;;16.97;9.90;;;;;;;;;;5070429;28;20282;-70
2021/08/19 01:17:52;;;;;;;17.63;9.87;;;;;;;;;;5070182;28;20666;-70
2021/08/19 01:20:22;;;;;;;18.90;7.10;;;;;;;;;;5052378;28;20601;-70
2021/08/19 01:22:47;;;;;;;15.75;9.70;;;;;;;;;;5069536;28;20027;-70
2021/08/19 01:25:13;;;;;;;17.77;9.48;;;;;;;;;;5070513;28;20028;-70
2021/08/19 01:27:38;;;;;;;19.13;9.18;;;;;;;;;;5070563;28;20425;-70
2021/08/19 01:30:03;;;;;;;23.53;9.53;;;;;;;;;;5070428;28;20475;-70
2021/08/19 01:32:31;;;;;;;16.02;9.00;;;;;;;;;;5069533;28;20313;-70
2021/08/19 01:34:56;;;;;;;15.23;9.88;;;;;;;;;;5069489;28;20025;-70
2021/08/19 01:37:21;;;;;;;24.07;10.37;;;;;;;;;;5069906;28;20387;-70
2021/08/19 01:39:47;;;;;;;21.50;11.20;;;;;;;;;;5070124;28;20270;-70
2021/08/19 01:42:12;;;;;;;20.02;8.95;;;;;;;;;;5069672;28;20621;-70
2021/08/19 01:44:37;;;;;;;17.53;9.00;;;;;;;;;;5070168;28;20021;-70
2021/08/19 01:47:04;;;;;;;16.40;9.97;;;;;;;;;;5068936;28;21735;-70
2021/08/19 01:49:29;;;;;;;20.88;10.18;;;;;;;;;;5052235;28;20254;-70
2021/08/19 01:51:55;;;;;;;25.50;11.38;;;;;;;;;;5069575;28;20036;-70
2021/08/19 01:54:21;;;;;;;20.38;11.30;;;;;;;;;;5069688;28;20027;-70
2021/08/19 01:56:47;;;;;;;19.75;10.90;;;;;;;;;;5069715;28;20039;-70
2021/08/19 01:59:12;;;;;;;17.17;10.37;;;;;;;;;;5069653;28;20463;-70
2021/08/19 02:01:37;;;;;;;19.85;9.18;;;;;;;;;;5069601;28;20305;-70
2021/08/19 02:04:03;;;;;;;17.80;9.23;;;;;;;;;;5068917;28;20078;-70
2021/08/19 02:06:28;;;;;;;20.13;9.45;;;;;;;;;;5069595;28;20283;-71
2021/08/19 02:08:53;;;;;;;22.33;9.10;;;;;;;;;;5068259;28;20505;-70
2021/08/19 02:11:20;;;;;;;16.60;8.95;;;;;;;;;;5064109;28;20259;-70
2021/08/19 02:13:45;;;;;;;16.65;9.00;;;;;;;;;;5068436;28;20024;-70
2021/08/19 02:16:11;;;;;;;14.87;9.03;;;;;;;;;;5069823;28;20229;-70
2021/08/19 02:18:36;;;;;;;19.63;9.60;;;;;;;;;;5069353;28;20267;-70
2021/08/19 02:21:02;;;;;;;23.17;8.50;;;;;;;;;;5069709;28;20028;-70
2021/08/19 02:23:27;;;;;;;15.67;7.77;;;;;;;;;;5068820;28;20266;-70
2021/08/19 02:25:52;;;;;;;23.75;9.32;;;;;;;;;;5069541;28;20368;-70
2021/08/19 02:28:17;;;;;;;18.20;8.63;;;;;;;;;;5069029;28;20142;-70
2021/08/19 02:30:42;;;;;;;18.47;10.50;;;;;;;;;;5069121;28;20736;-70
2021/08/19 02:33:08;;;;;;;16.13;9.27;;;;;;;;;;5069373;28;20308;-70
2021/08/19 02:35:33;;;;;;;18.10;8.63;;;;;;;;;;5069345;28;20035;-71
2021/08/19 02:38:00;;;;;;;18.10;8.23;;;;;;;;;;5051559;28;20021;-71
2021/08/19 02:40:26;;;;;;;18.13;8.35;;;;;;;;;;5069085;28;20262;-71
2021/08/19 02:42:51;;;;;;;16.90;8.02;;;;;;;;;;5069113;28;20047;-71
2021/08/19 02:45:16;;;;;;;17.33;7.90;;;;;;;;;;5051940;28;20097;-71
2021/08/19 02:47:42;;;;;;;18.83;8.90;;;;;;;;;;5069508;28;20317;-71
2021/08/19 02:50:07;;;;;;;17.48;7.95;;;;;;;;;;5069016;28;20445;-71
2021/08/19 02:52:32;;;;;;;19.58;10.38;;;;;;;;;;5068881;28;20017;-71
2021/08/19 02:54:57;;;;;;;14.85;8.02;;;;;;;;;;5069467;28;20112;-71
2021/08/19 02:57:23;;;;;;;16.40;8.93;;;;;;;;;;5068645;28;20099;-71
2021/08/19 02:59:48;;;;;;;23.77;8.63;;;;;;;;;;5068806;28;20267;-71
2021/08/19 03:02:13;;;;;;;19.20;8.60;;;;;;;;;;5068862;28;20720;-71
2021/08/19 03:04:38;;;;;;;22.90;9.50;;;;;;;;;;5068943;28;20262;-71
2021/08/19 03:07:04;;;;;;;19.13;9.30;;;;;;;;;;5068414;28;20104;-71
2021/08/19 03:09:29;;;;;;;17.30;7.88;;;;;;;;;;5069074;28;20387;-71
2021/08/19 03:11:54;;;;;;;15.73;8.30;;;;;;;;;;5069131;28;20067;-71
2021/08/19 03:14:19;;;;;;;16.20;9.30;;;;;;;;;;5070405;28;20028;-71
2021/08/19 03:16:44;;;;;;;14.32;8.13;;;;;;;;;;5073166;28;20274;-71
2021/08/19 03:19:10;;;;;;;17.20;7.53;;;;;;;;;;5072276;28;20032;-71
2021/08/19 03:21:36;;;;;;;20.25;8.43;;;;;;;;;;5072408;28;20077;-71
2021/08/19 03:24:03;;;;;;;17.90;8.63;;;;;;;;;;5072771;28;20021;-71
2021/08/19 03:26:28;;;;;;;15.30;8.23;;;;;;;;;;5071797;28;20082;-71
2021/08/19 03:28:54;;;;;;;18.38;8.43;;;;;;;;;;5072606;28;20025;-71
2021/08/19 03:31:19;;;;;;;18.52;8.63;;;;;;;;;;5072376;28;20026;-71
2021/08/19 03:33:46;;;;;;;22.25;9.90;;;;;;;;;;5071707;28;20433;-71
2021/08/19 03:36:11;;;;;;;19.25;8.60;;;;;;;;;;5071813;28;20452;-71
2021/08/19 03:38:36;;;;;;;22.90;9.38;;;;;;;;;;5072282;28;20016;-71
2021/08/19 03:41:01;;;;;;;18.47;9.70;;;;;;;;;;5072040;28;20470;-71
2021/08/19 03:43:26;;;;;;;20.97;8.37;;;;;;;;;;5070270;28;20273;-71
2021/08/19 03:45:52;;;;;;;23.70;10.53;;;;;;;;;;5071956;28;20748;-71
2021/08/19 03:48:17;;;;;;;20.53;8.47;;;;;;;;;;5072193;28;20274;-71
2021/08/19 03:50:43;;;;;;;20.00;9.23;;;;;;;;;;5071819;28;20271;-71
2021/08/19 03:53:08;;;;;;;22.67;10.23;;;;;;;;;;5071594;28;20633;-71
2021/08/19 03:55:33;;;;;;;20.08;9.75;;;;;;;;;;5071739;28;20099;-71
2021/08/19 03:57:58;;;;;;;22.60;10.10;;;;;;;;;;5071603;28;20092;-71
2021/08/19 04:00:23;;;;;;;16.43;9.57;;;;;;;;;;5071675;28;20640;-71
2021/08/19 04:02:49;;;;;;;16.67;10.00;;;;;;;;;;5071271;28;20274;-71
2021/08/19 04:05:14;;;;;;;21.33;9.95;;;;;;;;;;5071775;28;20013;-71
2021/08/19 04:07:40;;;;;;;23.25;10.45;;;;;;;;;;5071333;28;20021;-71
2021/08/19 04:10:05;;;;;;;20.00;8.60;;;;;;;;;;5071641;28;20386;-71
2021/08/19 04:12:30;;;;;;;22.17;11.00;;;;;;;;;;5071930;28;20016;-71
2021/08/19 04:14:56;;;;;;;20.90;9.90;;;;;;;;;;5071439;28;20024;-71
2021/08/19 04:17:21;;;;;;;22.57;10.30;;;;;;;;;;5071117;28;20056;-71
2021/08/19 04:19:46;;;;;;;21.73;9.63;;;;;;;;;;5070768;28;20421;-71
2021/08/19 04:22:11;;;;;;;31.33;9.80;;;;;;;;;;5071334;28;20060;-71
2021/08/19 04:24:37;;;;;;;22.15;10.25;;;;;;;;;;5071104;28;20259;-71
2021/08/19 04:27:02;;;;;;;29.20;10.50;;;;;;;;;;5070044;28;20033;-71
2021/08/19 04:29:27;;;;;;;27.48;9.73;;;;;;;;;;5070628;28;20381;-71
2021/08/19 04:31:53;;;;;;;29.35;11.07;;;;;;;;;;5070777;28;20031;-71
2021/08/19 04:34:18;;;;;;;21.73;6.20;;;;;;;;;;5071071;28;20039;-71
2021/08/19 04:36:44;;;;;;;21.07;9.07;;;;;;;;;;5070794;28;20346;-71
2021/08/19 04:39:09;;;;;;;20.40;9.23;;;;;;;;;;5069657;28;20271;-71
2021/08/19 04:41:35;;;;;;;18.23;9.20;;;;;;;;;;5070927;28;20024;-71
2021/08/19 04:44:00;;;;;;;18.38;9.45;;;;;;;;;;5070829;28;20020;-71
2021/08/19 04:46:25;;;;;;;18.93;8.70;;;;;;;;;;5070395;28;20099;-71
2021/08/19 04:48:50;;;;;;;19.80;8.10;;;;;;;;;;5113582;22;20304;-71
2021/08/19 04:51:16;;;;;;;16.83;8.70;;;;;;;;;;5132370;27;20023;-71
2021/08/19 04:53:41;;;;;;;17.40;9.52;;;;;;;;;;5131854;27;20623;-71
2021/08/19 04:56:06;;;;;;;21.13;10.20;;;;;;;;;;5131607;27;20394;-71
2021/08/19 04:58:31;;;;;;;19.83;9.30;;;;;;;;;;5131602;27;20031;-71
2021/08/19 05:00:57;;;;;;;17.73;8.77;;;;;;;;;;5126224;27;20758;-71
2021/08/19 05:03:22;;;;;;;23.63;8.33;;;;;;;;;;5115717;27;20360;-71
2021/08/19 05:05:47;;;;;;;16.13;8.25;;;;;;;;;;5122176;27;20285;-71
2021/08/19 05:08:12;;;;;;;17.97;8.13;;;;;;;;;;5128646;27;20404;-71
2021/08/19 05:10:38;;;;;;;17.85;7.53;;;;;;;;;;5121999;27;20276;-71
2021/08/19 05:13:03;;;;;;;19.23;8.43;;;;;;;;;;5103401;27;20051;-71
2021/08/19 05:15:28;;;;;;;20.17;7.50;;;;;;;;;;5110561;27;20114;-71
2021/08/19 05:17:53;;;;;;;17.48;7.88;;;;;;;;;;5116666;27;20264;-71
2021/08/19 05:20:19;;;;;;;16.17;8.07;;;;;;;;;;5117495;27;20456;-71
2021/08/19 05:22:44;;;;;;;19.37;8.63;;;;;;;;;;5113070;27;20472;-71
2021/08/19 05:25:09;;;;;;;18.60;8.02;;;;;;;;;;5123202;27;20277;-71
2021/08/19 05:27:34;;;;;;;20.10;8.88;;;;;;;;;;5123543;27;20038;-71
2021/08/19 05:30:00;;;;;;;22.50;8.25;;;;;;;;;;5119932;27;20038;-71
2021/08/19 05:32:25;;;;;;;22.08;9.13;;;;;;;;;;5121512;27;20022;-71
2021/08/19 05:34:50;;;;;;;18.52;8.80;;;;;;;;;;5121345;27;20028;-71
2021/08/19 05:37:15;;;;;;;21.63;8.73;;;;;;;;;;5126718;27;20529;-71
2021/08/19 05:39:40;;;;;;;15.57;8.23;;;;;;;;;;5113179;27;20055;-71
2021/08/19 05:42:06;;;;;;;19.70;8.77;;;;;;;;;;5117731;27;20665;-71
2021/08/19 05:44:32;;;;;;;12.27;7.25;;;;;;;;;;5115268;27;20273;-71
2021/08/19 05:46:57;;;;;;;17.55;8.02;;;;;;;;;;5108303;27;20019;-71
2021/08/19 05:49:22;;;;;;;18.02;7.13;;;;;;;;;;5113856;27;20030;-71
2021/08/19 05:51:47;;;;;;;21.57;8.10;;;;;;;;;;5118338;27;20023;-71
2021/08/19 05:54:13;;;;;;;18.17;7.93;;;;;;;;;;5122598;27;20300;-71
2021/08/19 05:56:38;;;;;;;17.23;7.97;;;;;;;;;;5129040;27;20302;-71
2021/08/19 05:59:03;;;;;;;15.07;8.20;;;;;;;;;;5124449;27;20291;-71
2021/08/19 06:01:28;;;;;;;14.55;8.45;;;;;;;;;;5128790;27;20312;-71
2021/08/19 06:03:53;;;;;;;14.10;7.97;;;;;;;;;;5127304;27;20035;-71
2021/08/19 06:06:19;;;;;;;17.27;8.65;;;;;;;;;;5124270;28;20436;-70
2021/08/19 06:08:44;;;;;;;16.50;9.52;;;;;;;;;;5125356;27;20054;-71
2021/08/19 06:11:09;;;;;;;19.23;8.53;;;;;;;;;;5114592;28;20018;-71
2021/08/19 06:13:34;;;;;;;19.20;8.80;;;;;;;;;;5117412;28;20600;-71
2021/08/19 06:15:59;;;;;;;18.97;10.70;;;;;;;;;;5113717;28;20531;-71
2021/08/19 06:18:25;;;;;;;19.83;9.57;;;;;;;;;;5129161;28;20268;-71
2021/08/19 06:20:50;;;;;;;26.00;10.10;;;;;;;;;;5127077;28;20262;-71
2021/08/19 06:23:15;;;;;;;16.63;9.73;;;;;;;;;;5129587;28;20606;-71
2021/08/19 06:25:41;;;;;;;21.90;9.03;;;;;;;;;;5122370;28;20445;-71
2021/08/19 06:28:06;;;;;;;16.27;9.43;;;;;;;;;;5118620;28;20258;-71
2021/08/19 06:30:32;;;;;;;21.00;8.68;;;;;;;;;;5131023;28;20023;-71
2021/08/19 06:32:58;;;;;;;18.00;8.43;;;;;;;;;;5119627;28;20015;-71
2021/08/19 06:35:23;;;;;;;22.05;9.35;;;;;;;;;;5116024;28;20024;-71
2021/08/19 06:37:49;;;;;;;14.53;8.33;;;;;;;;;;5112462;28;20069;-71
2021/08/19 06:40:14;;;;;;;17.70;9.25;;;;;;;;;;5118722;28;20327;-71
2021/08/19 06:42:39;;;;;;;19.00;7.50;;;;;;;;;;5110646;28;20054;-70
2021/08/19 06:45:05;;;;;;;15.27;7.30;;;;;;;;;;5117446;28;20272;-71
2021/08/19 06:47:30;;;;;;;21.05;8.10;;;;;;;;;;5130797;28;20094;-71
2021/08/19 06:49:55;;;;;;;16.20;8.35;;;;;;;;;;5125203;27;20392;-71
2021/08/19 06:52:20;;;;;;;20.13;8.30;;;;;;;;;;5114362;28;20047;-70
2021/08/19 06:54:45;;;;;;;22.45;8.85;;;;;;;;;;5124719;27;20107;-71
2021/08/19 06:57:11;;;;;;;17.50;7.90;;;;;;;;;;5133210;27;20433;-71
2021/08/19 06:59:36;;;;;;;20.35;9.07;;;;;;;;;;5133824;27;20257;-71
2021/08/19 07:02:01;;;;;;;14.27;8.57;;;;;;;;;;5127922;27;20023;-71
2021/08/19 07:04:26;;;;;;;13.55;6.57;;;;;;;;;;5133454;27;20261;-71
2021/08/19 07:06:52;;;;;;;18.23;8.82;;;;;;;;;;5118634;27;20512;-71
2021/08/19 07:09:18;;;;;;;16.90;8.25;;;;;;;;;;5120344;27;20073;-70
2021/08/19 07:11:43;;;;;;;19.52;9.05;;;;;;;;;;5125072;27;20043;-70
2021/08/19 07:14:08;;;;;;;16.23;9.90;;;;;;;;;;5126194;27;20076;-71
2021/08/19 07:16:33;;;;;;;17.63;9.90;;;;;;;;;;5124734;27;20366;-71
2021/08/19 07:18:58;;;;;;;20.02;10.23;;;;;;;;;;5127306;27;20257;-71
2021/08/19 07:21:24;;;;;;;22.93;10.10;;;;;;;;;;5129821;27;20031;-71
2021/08/19 07:23:49;;;;;;;19.45;10.90;;;;;;;;;;5128042;27;20362;-71
2021/08/19 07:26:14;;;;;;;20.03;12.43;;;;;;;;;;5119443;27;20038;-71
2021/08/19 07:28:40;;;;;;;21.33;11.57;;;;;;;;;;5124802;27;20292;-73
2021/08/19 07:31:05;;;;;;;16.13;9.60;;;;;;;;;;5115146;27;20026;-71
2021/08/19 07:33:30;;;;;;;24.40;11.93;;;;;;;;;;5131878;27;20049;-72
2021/08/19 07:35:55;;;;;;;25.05;11.80;;;;;;;;;;5125874;27;20060;-73
2021/08/19 07:38:20;;;;;;;20.20;11.15;;;;;;;;;;5127073;27;20058;-70
2021/08/19 07:40:47;;;;;;;20.42;12.07;;;;;;;;;;5115567;27;20032;-70
2021/08/19 07:43:12;;;;;;;21.13;10.85;;;;;;;;;;5115907;27;20030;-70
2021/08/19 07:45:37;;;;;;;17.88;9.45;;;;;;;;;;5122560;27;20016;-70
2021/08/19 07:48:07;;;;;;;21.98;10.27;;;;;;;;;;5132178;27;20034;-70
2021/08/19 07:50:32;;;;;;;14.55;9.95;;;;;;;;;;5113546;27;20044;-70
2021/08/19 07:52:57;;;;;;;20.47;8.03;;;;;;;;;;5128598;27;20016;-70
2021/08/19 07:55:22;;;;;;;18.10;8.47;;;;;;;;;;5130578;27;20834;-70
2021/08/19 07:57:48;;;;;;;17.33;8.65;;;;;;;;;;5113680;27;20368;-70
2021/08/19 08:00:17;;;;;;;18.67;8.95;;;;;;;;;;5119695;27;20038;-70
2021/08/19 08:02:43;;;;;;;16.15;8.75;;;;;;;;;;5131746;27;20049;-70
2021/08/19 08:05:08;;;;;;;16.53;8.77;;;;;;;;;;5124874;27;20023;-70
2021/08/19 08:07:33;;;;;;;14.43;8.50;;;;;;;;;;5133295;27;20337;-70
2021/08/19 08:09:58;;;;;;;20.53;9.00;;;;;;;;;;5130397;27;20447;-70
2021/08/19 08:12:24;;;;;;;16.90;7.80;;;;;;;;;;5118426;27;20249;-70
2021/08/19 08:14:50;;;;;;;19.77;8.13;;;;;;;;;;5116040;27;20461;-70
2021/08/19 08:17:17;;;;;;;15.70;7.90;;;;;;;;;;5133495;27;20019;-70
2021/08/19 08:19:43;;;;;;;17.98;9.13;;;;;;;;;;5131826;27;20353;-70
2021/08/19 08:22:08;;;;;;;17.63;8.03;;;;;;;;;;5120223;27;20027;-70
2021/08/19 08:24:33;;;;;;;16.80;9.07;;;;;;;;;;5116709;27;20293;-70
2021/08/19 08:26:59;;;;;;;19.17;9.03;;;;;;;;;;5124407;27;20674;-70
2021/08/19 08:29:25;;;;;;;20.02;9.68;;;;;;;;;;5121163;27;20381;-70
2021/08/19 08:31:50;;;;;;;19.98;9.63;;;;;;;;;;5119252;27;20016;-70
2021/08/19 08:34:16;;;;;;;15.70;9.20;;;;;;;;;;5130321;27;20042;-70
2021/08/19 08:36:42;;;;;;;19.65;9.15;;;;;;;;;;5129374;27;20249;-70
2021/08/19 08:39:08;;;;;;;22.77;10.02;;;;;;;;;;5130219;27;20083;-70
2021/08/19 08:41:33;;;;;;;26.98;10.07;;;;;;;;;;5148945;27;20015;-70
2021/08/19 08:43:59;;;;;;;14.65;7.85;;;;;;;;;;5098593;27;20015;-70
2021/08/19 08:46:24;;;;;;;18.95;8.13;;;;;;;;;;5124779;27;20060;-70
2021/08/19 08:48:53;;;;;;;15.48;8.40;;;;;;;;;;5125272;27;20050;-70
2021/08/19 08:51:19;;;;;;;13.13;8.20;;;;;;;;;;5096659;28;20020;-70
2021/08/19 08:53:44;;;;;;;16.20;8.35;;;;;;;;;;5109269;27;20066;-70
2021/08/19 08:56:10;;;;;;;15.93;7.50;;;;;;;;;;5114042;27;20051;-70
2021/08/19 08:58:35;;;;;;;15.70;7.70;;;;;;;;;;5113582;27;20039;-70
2021/08/19 09:01:00;;;;;;;14.13;7.97;;;;;;;;;;5116683;27;20325;-70
2021/08/19 09:03:25;;;;;;;13.33;7.93;;;;;;;;;;5127172;27;20334;-70
2021/08/19 09:05:51;;;;;;;16.23;6.95;;;;;;;;;;5131021;27;20264;-70
2021/08/19 09:08:18;;;;;;;14.80;6.82;;;;;;;;;;5129391;27;20015;-70
2021/08/19 09:10:44;;;;;;;11.18;6.68;;;;;;;;;;5128688;27;20042;-70
2021/08/19 09:13:13;;;;;;;14.50;6.93;;;;;;;;;;5112259;27;20111;-70
2021/08/19 09:15:38;;;;;;;15.60;6.82;;;;;;;;;;5102703;27;20050;-70
2021/08/19 09:18:03;;;;;;;11.95;7.28;;;;;;;;;;5129535;27;20481;-70
2021/08/19 09:20:31;;;;;;;14.23;7.13;;;;;;;;;;5111857;27;20490;-70
2021/08/19 09:22:58;;;;;;;15.82;6.75;;;;;;;;;;5110998;27;20024;-70
2021/08/19 09:25:23;;;;;;;13.07;6.07;;;;;;;;;;5111922;27;20027;-71
2021/08/19 09:28:07;;;;;;;10.77;5.83;;;;;;;;;;5112402;27;20019;-70
2021/08/19 09:30:32;;;;;;;11.10;6.47;;;;;;;;;;5130414;27;20261;-70
2021/08/19 09:32:57;;;;;;;14.13;6.70;;;;;;;;;;5128509;27;20077;-70
2021/08/19 09:35:22;;;;;;;14.17;7.43;;;;;;;;;;5132134;27;20367;-70
2021/08/19 09:37:47;;;;;;;10.57;6.27;;;;;;;;;;5114012;27;20268;-70
2021/08/19 09:40:15;;;;;;;9.53;6.47;;;;;;;;;;5123512;27;20023;-70
2021/08/19 09:42:40;;;;;;;14.95;7.00;;;;;;;;;;5113111;27;20254;-70
2021/08/19 09:45:19;;;;;;;11.13;6.75;;;;;;;;;;5117626;27;20034;-70
2021/08/19 09:47:44;;;;;;;11.40;6.15;;;;;;;;;;5124482;27;20034;-70
2021/08/19 09:50:10;;;;;;;10.47;5.97;;;;;;;;;;5131222;27;20012;-70
2021/08/19 09:52:35;;;;;;;12.07;6.15;;;;;;;;;;5129020;27;20624;-70
2021/08/19 09:55:18;;;;;;;14.33;6.90;;;;;;;;;;5121649;27;20033;-70
2021/08/19 09:57:43;;;;;;;8.18;5.13;;;;;;;;;;5126689;27;20031;-70
2021/08/19 10:00:10;;;;;;;10.20;5.53;;;;;;;;;;5128955;27;20102;-70
2021/08/19 10:02:35;;;;;;;9.63;5.78;;;;;;;;;;5114911;27;20280;-70
2021/08/19 10:05:00;;;;;;;8.77;5.57;;;;;;;;;;5116353;28;20015;-70
2021/08/19 10:07:25;;;;;;;11.30;6.27;;;;;;;;;;5116167;28;20289;-70
2021/08/19 10:09:50;;;;;;;10.93;5.83;;;;;;;;;;5121099;28;20269;-70
2021/08/19 10:12:16;;;;;;;11.55;5.72;;;;;;;;;;5119866;28;20345;-70
2021/08/19 10:14:41;;;;;;;7.28;5.15;;;;;;;;;;5111913;28;20423;-70
2021/08/19 10:17:08;;;;;;;9.32;5.93;;;;;;;;;;5117027;28;20030;-70
2021/08/19 10:19:41;;;;;;;13.95;6.00;;;;;;;;;;5129178;28;20038;-70
2021/08/19 10:22:11;;;;;;;12.40;5.65;;;;;;;;;;5117991;28;20107;-70
2021/08/19 10:24:36;;;;;;;;;;;;;;;;;;5129404;27;20371;-70
2021/08/19 10:27:08;;;;;;;11.02;5.97;;;;;;;;;;5128836;27;19922;-70
2021/08/19 10:29:41;;;;;;;8.60;5.13;;;;;;;;;;5116553;27;20038;-71
2021/08/19 10:32:19;;;;;;;7.88;5.22;;;;;;;;;;5114634;27;20022;-71
2021/08/19 10:35:03;;;;;;;9.55;5.78;;;;;;;;;;5117865;27;20023;-70
2021/08/19 10:37:47;;;;;;;8.73;4.85;;;;;;;;;;5126634;27;20384;-71
2021/08/19 10:40:21;;;;;;;6.30;4.63;;;;;;;;;;5120509;27;20020;-71
2021/08/19 10:42:53;;;;;;;7.57;4.85;;;;;;;;;;5119754;27;20098;-71
2021/08/19 10:45:30;;;;;;;8.02;5.03;;;;;;;;;;5126105;27;20507;-71
2021/08/19 10:48:15;;;;;;;7.70;5.03;;;;;;;;;;5146937;22;20051;-65
2021/08/19 10:50:44;;;;;;;14.40;5.20;;;;;;;;;;5116337;27;20041;-65
2021/08/19 10:53:14;;;;;;;11.48;4.80;;;;;;;;;;5128659;27;20020;-65
2021/08/19 10:55:40;;;;;;;7.13;4.93;;;;;;;;;;5121825;27;20023;-66
2021/08/19 10:58:21;;;;;;;9.45;5.32;;;;;;;;;;5132935;27;20396;-65
2021/08/19 11:00:46;;;;;;;7.35;4.63;;;;;;;;;;5116435;27;20023;-66
2021/08/19 11:03:34;;;;;;;10.53;5.30;;;;;;;;;;5113910;28;20028;-66
2021/08/19 11:05:59;;;;;;;23.60;6.88;;;;;;;;;;5133460;27;20711;-66
2021/08/19 11:08:37;;;;;;;9.82;5.20;;;;;;;;;;5133698;27;20089;-65
2021/08/19 11:11:04;;;;;;;9.88;5.28;;;;;;;;;;5122374;27;20015;-66
2021/08/19 11:13:31;;;;;;;12.00;5.65;;;;;;;;;;5133220;27;20431;-66
2021/08/19 11:15:56;;;;;;;11.55;5.80;;;;;;;;;;5122734;27;20445;-66
2021/08/19 11:18:25;;;;;;;10.30;5.83;;;;;;;;;;5113892;28;20099;-65
2021/08/19 11:20:51;;;;;;;7.72;4.88;;;;;;;;;;5115730;27;20273;-65
2021/08/19 11:23:16;;;;;;;9.32;4.90;;;;;;;;;;5114680;27;20081;-66
2021/08/19 11:25:42;;;;;;;11.07;5.70;;;;;;;;;;5114312;27;20019;-67
2021/08/19 11:28:08;;;;;;;11.32;4.75;;;;;;;;;;5130586;27;20012;-66
2021/08/19 11:30:34;;;;;;;13.53;4.37;;;;;;;;;;5115291;27;20063;-65
2021/08/19 11:33:29;;;;;;;8.80;3.83;;;;;;;;;;5116261;27;20731;-65
2021/08/19 11:35:57;;;;;;;10.95;4.20;;;;;;;;;;5103446;27;20059;-66
2021/08/19 11:38:23;;;;;;;8.27;5.50;;;;;;;;;;5120029;27;20012;-65
2021/08/19 11:40:53;;;;;;;10.38;6.32;;;;;;;;;;5115799;27;20019;-65
2021/08/19 11:43:28;;;;;;;11.27;6.85;;;;;;;;;;5125569;27;20024;-66
2021/08/19 11:46:06;;;;;;;15.80;7.53;;;;;;;;;;5120876;27;20381;-65
2021/08/19 11:48:31;;;;;;;15.70;8.65;;;;;;;;;;5128883;27;20030;-66
2021/08/19 11:50:58;;;;;;;15.57;7.93;;;;;;;;;;5118028;27;20019;-66
2021/08/19 11:53:24;;;;;;;16.65;8.55;;;;;;;;;;5124276;27;20365;-65
2021/08/19 11:55:50;;;;;;;14.32;7.97;;;;;;;;;;5119196;27;20023;-65
2021/08/19 11:58:19;;;;;;;11.25;7.38;;;;;;;;;;5118584;27;20048;-66
2021/08/19 12:00:58;;;;;;;15.80;6.85;;;;;;;;;;5115818;27;20102;-67
2021/08/19 12:03:24;;;;;;;11.90;5.72;;;;;;;;;;5121609;27;20019;-66
2021/08/19 12:06:01;;;;;;;6.82;4.13;;;;;;;;;;5114049;27;20523;-67
2021/08/19 12:08:27;;;;;;;9.55;4.72;;;;;;;;;;5122720;27;20015;-65
2021/08/19 12:10:56;;;;;;;5.72;3.72;;;;;;;;;;5124041;27;20034;-66
2021/08/19 12:13:21;;;;;;;6.80;3.65;;;;;;;;;;5113594;27;20103;-66
2021/08/19 12:15:47;;;;;;;9.93;4.13;;;;;;;;;;5123598;27;20114;-66
2021/08/19 12:18:12;;;;;;;5.50;2.90;;;;;;;;;;5123466;27;20078;-66
2021/08/19 12:20:38;;;;;;;8.13;3.67;;;;;;;;;;5132680;27;20015;-65
2021/08/19 12:23:23;;;;;;;3.92;2.70;;;;;;;;;;5119793;27;20102;-66
2021/08/19 12:25:49;;;;;;;4.22;2.10;;;;;;;;;;5115323;27;20045;-65
2021/08/19 12:28:16;;;;;;;4.40;1.90;;;;;;;;;;5130210;27;20528;-65
2021/08/19 12:30:58;;;;;;;4.18;1.40;;;;;;;;;;5121578;27;20020;-66
2021/08/19 12:33:37;;;;;;;5.80;1.98;;;;;;;;;;5120022;27;20629;-65
2021/08/19 12:36:13;;;;;;;3.35;1.48;;;;;;;;;;5126630;27;20028;-66
2021/08/19 12:38:39;;;;;;;4.40;1.77;;;;;;;;;;5111758;28;20537;-65
2021/08/19 12:41:12;;;;;;;6.22;2.20;;;;;;;;;;5116133;27;20103;-68
2021/08/19 12:43:37;;;;;;;3.35;2.05;;;;;;;;;;5132499;27;20023;-66
2021/08/19 12:46:07;;;;;;;7.30;1.98;;;;;;;;;;5127177;27;20029;-66
2021/08/19 12:48:32;;;;;;;5.38;1.30;;;;;;;;;;5124603;27;20051;-66
2021/08/19 12:51:15;;;;;;;7.50;1.50;;;;;;;;;;5131086;27;20124;-66
2021/08/19 12:53:59;;;;;;;6.75;1.83;;;;;;;;;;5124423;27;20030;-66
2021/08/19 12:56:24;;;;;;;3.20;1.13;;;;;;;;;;5113908;27;20045;-65
2021/08/19 12:58:49;;;;;;;3.50;1.80;;;;;;;;;;5118580;27;20019;-66
2021/08/19 13:01:15;;;;;;;5.23;1.40;;;;;;;;;;5129007;27;20388;-67
2021/08/19 13:03:40;;;;;;;5.20;1.67;;;;;;;;;;5114559;27;20773;-65
2021/08/19 13:06:05;;;;;;;1.83;1.00;;;;;;;;;;5126129;27;20040;-66
2021/08/19 13:08:30;;;;;;;4.63;1.10;;;;;;;;;;5119071;27;20280;-65
2021/08/19 13:10:56;;;;;;;4.57;1.20;;;;;;;;;;5124269;27;20268;-66
2021/08/19 13:13:23;;;;;;;4.23;1.70;;;;;;;;;;5111977;27;20496;-65
2021/08/19 13:15:48;;;;;;;5.13;1.50;;;;;;;;;;5131435;27;20011;-67
2021/08/19 13:18:14;;;;;;;4.90;1.95;;;;;;;;;;5121939;27;20417;-66
2021/08/19 13:20:39;;;;;;;4.00;2.22;;;;;;;;;;5127736;27;20027;-65
2021/08/19 13:23:05;;;;;;;6.33;2.33;;;;;;;;;;5110810;28;20094;-66
2021/08/19 13:25:30;;;;;;;6.95;3.05;;;;;;;;;;5128657;27;20031;-65
2021/08/19 13:27:55;;;;;;;9.93;3.07;;;;;;;;;;5131270;27;20080;-65
2021/08/19 13:30:21;;;;;;;9.53;2.73;;;;;;;;;;5111663;27;20950;-65
2021/08/19 13:32:47;;;;;;;5.72;2.38;;;;;;;;;;5111729;27;20027;-66
2021/08/19 13:35:13;;;;;;;6.18;2.92;;;;;;;;;;5119738;27;20019;-66
2021/08/19 13:37:38;;;;;;;3.95;2.05;;;;;;;;;;5111184;28;20043;-66
2021/08/19 13:40:04;;;;;;;6.15;2.50;;;;;;;;;;5113929;28;20049;-66
2021/08/19 13:42:29;;;;;;;6.47;2.22;;;;;;;;;;5123575;27;20023;-66
2021/08/19 13:44:54;;;;;;;4.77;1.90;;;;;;;;;;5130596;27;20497;-66
2021/08/19 13:47:19;;;;;;;4.13;2.07;;;;;;;;;;5130340;27;20068;-65
2021/08/19 13:49:45;;;;;;;4.82;1.63;;;;;;;;;;5129273;27;20684;-66
2021/08/19 13:52:10;;;;;;;5.13;1.93;;;;;;;;;;5131311;27;20034;-67
2021/08/19 13:54:35;;;;;;;9.45;1.90;;;;;;;;;;5125335;27;20044;-65
2021/08/19 13:57:04;;;;;;;3.95;1.48;;;;;;;;;;5118768;27;20015;-67
2021/08/19 13:59:29;;;;;;;4.82;1.42;;;;;;;;;;5128767;27;20019;-66
2021/08/19 14:01:55;;;;;;;3.92;1.15;;;;;;;;;;5106245;28;20118;-66
2021/08/19 14:04:20;;;;;;;3.50;1.60;;;;;;;;;;5117872;27;20626;-65
2021/08/19 14:06:45;;;;;;;6.78;1.42;;;;;;;;;;5111401;28;20416;-68
2021/08/19 14:09:11;;;;;;;3.47;1.70;;;;;;;;;;5112313;28;20213;-65
2021/08/19 14:11:36;;;;;;;8.15;1.83;;;;;;;;;;5112992;27;20015;-65
2021/08/19 14:14:02;;;;;;;2.83;1.50;;;;;;;;;;5113010;28;20032;-67
2021/08/19 14:16:27;;;;;;;4.88;1.60;;;;;;;;;;5120275;28;20027;-65
2021/08/19 14:18:52;;;;;;;4.15;1.63;;;;;;;;;;5112079;28;20015;-66
2021/08/19 14:21:18;;;;;;;3.78;1.90;;;;;;;;;;5112170;28;20023;-67
2021/08/19 14:23:43;;;;;;;3.13;1.83;;;;;;;;;;5117331;28;20027;-66
2021/08/19 14:26:10;;;;;;;2.47;1.50;;;;;;;;;;5120457;27;20102;-65
2021/08/19 14:28:36;;;;;;;10.23;2.17;;;;;;;;;;5127455;27;20031;-67